Time;durP1;ratioP1;P1;durP2;ratioP2;P2;SDS_P1;SDS_P2;PMS_P1;PMS_P2;Temp;Humidity;BMP_temperature;BMP_pressure;BME280_temperature;BME280_humidity;BME280_pressure;Samples;Min_cycle;Max_cycle;Signal;HPM_P1;HPM_P2
2022/05/18 00:01:11;;;;;;;6.55;1.65;;;15.30;99.90;;;;;;5068101;28;20506;-67
2022/05/18 00:03:42;;;;;;;2.35;1.10;;;15.50;99.90;;;;;;5063065;28;20021;-72
2022/05/18 00:06:10;;;;;;;1.88;1.20;;;15.70;99.90;;;;;;5060555;28;20017;-72
2022/05/18 00:08:37;;;;;;;2.47;0.77;;;15.80;99.90;;;;;;5044736;28;20055;-71
2022/05/18 00:11:10;;;;;;;1.92;0.75;;;16.00;99.90;;;;;;5034311;28;20083;-72
2022/05/18 00:13:38;;;;;;;2.42;1.40;;;16.20;99.90;;;;;;5062114;28;20024;-70
2022/05/18 00:16:06;;;;;;;3.10;1.67;;;16.40;99.70;;;;;;5065316;28;20422;-70
2022/05/18 00:18:33;;;;;;;1.85;1.00;;;16.60;99.30;;;;;;5063992;28;20019;-74
2022/05/18 00:21:01;;;;;;;1.60;0.60;;;16.90;98.30;;;;;;5063667;28;20119;-71
2022/05/18 00:23:28;;;;;;;3.13;0.80;;;17.00;96.70;;;;;;5059854;28;20029;-72
2022/05/18 00:25:56;;;;;;;1.48;0.40;;;17.00;96.10;;;;;;5061460;28;20024;-70
2022/05/18 00:28:23;;;;;;;4.40;0.98;;;17.30;99.90;;;;;;5071699;28;20012;-75
2022/05/18 00:30:51;;;;;;;2.30;0.80;;;17.50;99.90;;;;;;5044865;28;20021;-69
2022/05/18 00:33:19;;;;;;;2.78;0.73;;;17.80;97.80;;;;;;5065939;28;20443;-69
2022/05/18 00:35:46;;;;;;;2.40;0.77;;;18.00;96.00;;;;;;5063928;28;20024;-75
2022/05/18 00:38:13;;;;;;;3.75;1.00;;;18.00;96.00;;;;;;5060680;28;20045;-70
2022/05/18 00:40:44;;;;;;;1.98;0.63;;;18.00;95.00;;;;;;5065829;28;20021;-69
2022/05/18 00:43:30;;;;;;;3.63;0.77;;;17.90;95.30;;;;;;5059082;28;20106;-75
2022/05/18 00:46:02;;;;;;;3.17;1.00;;;18.00;94.90;;;;;;5067555;28;20154;-72
2022/05/18 00:48:30;;;;;;;3.08;1.17;;;18.00;95.00;;;;;;5065106;28;20024;-72
2022/05/18 00:50:59;;;;;;;3.00;1.33;;;18.00;95.60;;;;;;5066245;28;20037;-74
2022/05/18 00:53:40;;;;;;;2.63;0.70;;;18.20;95.20;;;;;;5067858;28;20447;-71
2022/05/18 00:56:13;;;;;;;1.55;0.50;;;18.50;94.70;;;;;;5073798;28;20025;-73
2022/05/18 00:58:57;;;;;;;3.22;0.80;;;18.60;93.70;;;;;;5045579;28;20278;-74
2022/05/18 01:01:25;;;;;;;2.75;0.65;;;18.70;93.90;;;;;;5066973;28;20021;-75
2022/05/18 01:03:53;;;;;;;2.15;0.55;;;18.80;93.50;;;;;;5061197;28;20056;-73
2022/05/18 01:07:00;;;;;;;1.23;0.60;;;18.90;94.30;;;;;;5070511;28;20024;-73
2022/05/18 01:09:37;;;;;;;3.17;0.70;;;19.00;93.80;;;;;;5060914;28;20021;-73
2022/05/18 01:12:10;;;;;;;1.83;0.90;;;19.20;94.00;;;;;;5072106;28;20055;-73
2022/05/18 01:15:03;;;;;;;1.17;0.57;;;19.40;93.20;;;;;;5066518;28;20483;-73
2022/05/18 01:17:34;;;;;;;;;;;19.50;93.30;;;;;;5063649;28;20119;-74
2022/05/18 01:20:14;;;;;;;2.63;0.57;;;19.60;92.60;;;;;;5059654;28;19920;-69
2022/05/18 01:22:41;;;;;;;3.08;0.82;;;19.80;91.90;;;;;;5057882;28;20016;-69
2022/05/18 01:25:20;;;;;;;1.52;0.70;;;19.90;90.40;;;;;;5068110;28;20029;-68
2022/05/18 01:27:47;;;;;;;3.40;0.80;;;19.70;91.70;;;;;;5066978;28;20095;-67
2022/05/18 01:30:14;;;;;;;2.13;1.05;;;19.70;92.70;;;;;;5064001;28;20096;-66
2022/05/18 01:32:50;;;;;;;2.55;0.70;;;19.90;91.50;;;;;;5068169;28;20117;-72
2022/05/18 01:35:21;;;;;;;4.05;1.15;;;19.90;91.70;;;;;;5047840;28;20024;-68
2022/05/18 01:37:48;;;;;;;2.33;1.73;;;20.00;91.40;;;;;;5064315;28;20040;-68
2022/05/18 01:40:26;;;;;;;3.97;1.33;;;19.90;90.90;;;;;;5067726;28;20044;-69
2022/05/18 01:43:02;;;;;;;1.98;1.00;;;19.80;91.10;;;;;;5066945;28;20232;-67
2022/05/18 01:45:29;;;;;;;3.08;1.05;;;19.60;91.30;;;;;;5063572;28;20025;-73
2022/05/18 01:48:08;;;;;;;3.10;1.50;;;19.70;91.70;;;;;;5070666;28;20032;-68
2022/05/18 01:50:36;;;;;;;2.28;1.00;;;20.00;91.80;;;;;;5069845;28;20020;-73
2022/05/18 01:53:04;;;;;;;1.88;0.90;;;20.20;91.70;;;;;;5067307;28;20017;-73
2022/05/18 01:55:32;;;;;;;1.75;0.70;;;20.30;91.40;;;;;;5060533;28;20028;-69
2022/05/18 01:57:59;;;;;;;1.67;0.80;;;20.50;90.30;;;;;;5067206;28;20051;-68
2022/05/18 02:00:28;;;;;;;3.70;1.00;;;20.50;90.10;;;;;;5066343;28;20032;-73
2022/05/18 02:02:55;;;;;;;1.58;0.80;;;20.70;90.70;;;;;;5062695;28;20021;-68
2022/05/18 02:05:22;;;;;;;2.78;0.88;;;20.80;90.50;;;;;;5064349;28;20099;-69
2022/05/18 02:07:49;;;;;;;3.38;0.88;;;20.90;90.40;;;;;;4355956;28;10000783;-67
2022/05/18 02:10:16;;;;;;;1.85;0.73;;;21.00;90.00;;;;;;5072105;28;20399;-68
2022/05/18 02:12:43;;;;;;;2.63;0.77;;;21.30;90.10;;;;;;5054824;28;20383;-69
2022/05/18 02:15:10;;;;;;;4.10;1.05;;;21.20;88.40;;;;;;5051793;28;20024;-68
2022/05/18 02:17:38;;;;;;;1.45;0.70;;;21.20;90.00;;;;;;5059887;28;20127;-65
2022/05/18 02:20:07;;;;;;;2.78;0.90;;;21.30;88.50;;;;;;5055818;28;20025;-74
2022/05/18 02:22:33;;;;;;;2.15;0.90;;;21.20;89.20;;;;;;5071734;28;20056;-72
2022/05/18 02:25:00;;;;;;;3.53;1.00;;;21.40;89.50;;;;;;5059961;28;20029;-67
2022/05/18 02:27:29;;;;;;;2.88;0.90;;;21.60;89.30;;;;;;5068688;28;20024;-72
2022/05/18 02:29:57;;;;;;;3.75;0.88;;;21.60;88.70;;;;;;5065467;28;20052;-68
2022/05/18 02:32:24;;;;;;;1.13;0.63;;;21.60;87.30;;;;;;5053280;28;20028;-72
2022/05/18 02:34:51;;;;;;;1.75;0.77;;;21.70;87.70;;;;;;5063361;28;20033;-74
2022/05/18 02:37:18;;;;;;;1.70;0.60;;;21.80;87.10;;;;;;5068283;28;20115;-72
2022/05/18 02:39:45;;;;;;;2.92;1.00;;;21.90;87.00;;;;;;5072299;28;20116;-73
2022/05/18 02:42:12;;;;;;;2.53;0.82;;;22.00;86.80;;;;;;5062575;28;20378;-66
2022/05/18 02:44:39;;;;;;;1.75;0.50;;;21.90;85.70;;;;;;5057757;28;20558;-73
2022/05/18 02:47:06;;;;;;;1.88;0.52;;;21.90;84.30;;;;;;5073492;28;20082;-73
2022/05/18 02:49:33;;;;;;;1.67;0.88;;;21.80;85.60;;;;;;5060615;28;20700;-69
2022/05/18 02:52:00;;;;;;;1.15;0.50;;;21.70;84.40;;;;;;5073824;28;20032;-69
2022/05/18 02:57:13;;;;;;;2.08;0.80;;;21.80;85.20;;;;;;5061351;28;20044;-72
2022/05/18 02:59:40;;;;;;;1.73;0.73;;;21.80;85.00;;;;;;5061644;28;20072;-72
2022/05/18 03:02:07;;;;;;;1.95;0.60;;;21.90;85.70;;;;;;5055419;28;20486;-72
2022/05/18 03:04:34;;;;;;;2.22;0.60;;;21.90;81.80;;;;;;5040489;28;20020;-74
2022/05/18 03:07:01;;;;;;;1.90;0.75;;;22.00;83.30;;;;;;5060545;28;20339;-71
2022/05/18 03:09:28;;;;;;;2.22;0.63;;;21.90;84.80;;;;;;5065317;28;20021;-73
2022/05/18 03:11:56;;;;;;;2.55;0.70;;;21.90;83.50;;;;;;5066301;28;20024;-73
2022/05/18 03:14:24;;;;;;;0.50;0.40;;;22.00;83.80;;;;;;5058739;28;20104;-70
2022/05/18 03:16:52;;;;;;;3.08;0.90;;;22.10;84.20;;;;;;5062970;28;20429;-68
2022/05/18 03:19:19;;;;;;;0.98;0.55;;;22.30;84.60;;;;;;5062949;28;20013;-68
2022/05/18 03:24:31;;;;;;;1.80;0.68;;;22.70;83.50;;;;;;5064958;28;20084;-69
2022/05/18 03:26:58;;;;;;;2.85;0.60;;;22.70;83.30;;;;;;5064092;28;20505;-68
2022/05/18 03:29:25;;;;;;;2.17;0.70;;;22.70;80.90;;;;;;5071647;28;20035;-72
2022/05/18 03:31:52;;;;;;;2.08;0.90;;;22.60;80.50;;;;;;5053540;28;20554;-67
2022/05/18 03:34:19;;;;;;;2.05;0.70;;;22.20;81.40;;;;;;5059582;28;20137;-70
2022/05/18 03:36:46;;;;;;;2.58;0.98;;;22.00;82.60;;;;;;5060738;28;20020;-72
2022/05/18 03:39:13;;;;;;;1.63;0.65;;;22.10;81.90;;;;;;5057211;28;20029;-72
2022/05/18 03:41:40;;;;;;;1.77;0.63;;;22.30;82.10;;;;;;5068087;28;20086;-70
2022/05/18 03:44:08;;;;;;;1.58;0.80;;;22.30;80.70;;;;;;5058441;28;20102;-72
2022/05/18 03:46:35;;;;;;;1.70;0.57;;;22.40;80.10;;;;;;5061883;28;20127;-73
2022/05/18 03:49:03;;;;;;;1.83;0.43;;;22.40;82.00;;;;;;5057117;28;20119;-69
2022/05/18 03:51:31;;;;;;;2.55;0.57;;;22.50;81.30;;;;;;5053465;28;20013;-71
2022/05/18 03:53:58;;;;;;;1.23;0.47;;;22.70;81.10;;;;;;5055203;28;20017;-71
2022/05/18 03:56:26;;;;;;;1.42;0.50;;;22.80;80.10;;;;;;5061878;28;20031;-70
2022/05/18 03:58:53;;;;;;;2.75;0.88;;;22.90;80.00;;;;;;5066442;28;20033;-72
2022/05/18 04:01:20;;;;;;;2.42;0.85;;;22.90;78.00;;;;;;5070058;28;20026;-68
2022/05/18 04:03:48;;;;;;;0.65;0.50;;;22.60;77.60;;;;;;5054718;28;20013;-68
2022/05/18 04:06:16;;;;;;;0.77;0.60;;;22.50;78.60;;;;;;5055160;28;20079;-71
2022/05/18 04:08:43;;;;;;;2.60;0.80;;;22.30;79.70;;;;;;5053787;28;20009;-67
2022/05/18 04:11:11;;;;;;;1.83;0.60;;;22.20;80.20;;;;;;5061843;28;20024;-70
2022/05/18 04:13:38;;;;;;;1.02;0.85;;;22.10;77.60;;;;;;5037820;28;20086;-70
2022/05/18 04:16:05;;;;;;;2.33;0.98;;;22.10;80.10;;;;;;5033243;28;20544;-71
2022/05/18 04:18:33;;;;;;;7.05;1.33;;;22.20;80.60;;;;;;5066551;28;20056;-70
2022/05/18 04:21:01;;;;;;;4.45;0.60;;;22.20;80.20;;;;;;5053764;28;20497;-70
2022/05/18 04:23:28;;;;;;;1.38;0.43;;;22.00;77.00;;;;;;5064444;28;20028;-69
2022/05/18 04:25:55;;;;;;;2.35;0.52;;;21.90;79.40;;;;;;5040710;28;20060;-67
2022/05/18 04:28:22;;;;;;;6.32;0.82;;;21.90;79.60;;;;;;5063963;28;20451;-68
2022/05/18 04:30:50;;;;;;;6.05;0.80;;;22.10;78.60;;;;;;5061000;28;20036;-73
2022/05/18 04:33:20;;;;;;;2.15;0.90;;;22.10;79.20;;;;;;5060249;28;20032;-69
2022/05/18 04:35:50;;;;;;;1.65;0.45;;;21.90;78.40;;;;;;5051389;28;20035;-72
2022/05/18 04:38:20;;;;;;;1.85;0.60;;;21.70;78.80;;;;;;5074482;28;20116;-71
2022/05/18 04:40:47;;;;;;;5.60;0.93;;;21.40;80.40;;;;;;5063408;28;20033;-72
2022/05/18 04:43:16;;;;;;;1.77;1.13;;;21.50;80.60;;;;;;5059758;28;20021;-71
2022/05/18 04:45:46;;;;;;;3.28;0.60;;;21.40;79.80;;;;;;5064162;28;20017;-74
2022/05/18 04:48:16;;;;;;;2.90;0.60;;;21.30;80.90;;;;;;5055165;28;20083;-73
2022/05/18 04:50:44;;;;;;;4.13;0.90;;;21.30;82.40;;;;;;5063586;28;20016;-68
2022/05/18 04:53:11;;;;;;;4.18;0.68;;;21.50;81.10;;;;;;5052033;28;20052;-73
2022/05/18 04:55:39;;;;;;;1.90;0.50;;;21.60;78.80;;;;;;5035907;28;20120;-70
2022/05/18 04:58:06;;;;;;;3.20;0.98;;;21.60;80.50;;;;;;5057539;28;20020;-69
2022/05/18 05:00:34;;;;;;;4.13;0.80;;;21.10;81.10;;;;;;5062490;28;20021;-76
2022/05/18 05:03:01;;;;;;;2.25;0.85;;;20.70;81.90;;;;;;5055513;28;20025;-67
2022/05/18 05:05:28;;;;;;;4.38;1.25;;;20.30;83.80;;;;;;5058754;28;20155;-70
2022/05/18 05:07:56;;;;;;;4.85;1.02;;;20.00;84.40;;;;;;5059914;28;20024;-72
2022/05/18 05:10:23;;;;;;;5.88;0.95;;;19.80;84.30;;;;;;5055039;28;20086;-70
2022/05/18 05:12:50;;;;;;;5.13;1.08;;;19.80;84.40;;;;;;5060113;28;20024;-69
2022/05/18 05:15:18;;;;;;;6.05;0.90;;;20.00;84.80;;;;;;5059288;28;20158;-68
2022/05/18 05:17:45;;;;;;;3.03;0.70;;;20.40;84.80;;;;;;5056037;28;20028;-68
2022/05/18 05:20:13;;;;;;;4.32;1.00;;;20.40;84.00;;;;;;5060703;28;20070;-71
2022/05/18 05:22:40;;;;;;;2.05;0.60;;;20.00;85.50;;;;;;5061747;28;20035;-70
2022/05/18 05:25:07;;;;;;;8.18;0.68;;;19.80;84.50;;;;;;5061952;28;20047;-69
2022/05/18 05:27:34;;;;;;;4.95;1.13;;;20.20;84.40;;;;;;5059585;28;20487;-69
2022/05/18 05:30:02;;;;;;;2.97;0.80;;;20.60;84.50;;;;;;5062275;28;20495;-69
2022/05/18 05:32:29;;;;;;;7.43;0.80;;;20.90;82.90;;;;;;5063427;28;20103;-70
2022/05/18 05:34:56;;;;;;;5.68;0.90;;;20.80;81.90;;;;;;5060875;28;20043;-69
2022/05/18 05:37:23;;;;;;;5.47;0.95;;;20.20;84.10;;;;;;5066019;28;20043;-71
2022/05/18 05:39:50;;;;;;;3.35;0.80;;;19.80;84.40;;;;;;5060762;28;20025;-72
2022/05/18 05:42:17;;;;;;;8.63;0.82;;;19.30;86.20;;;;;;5066952;28;20016;-69
2022/05/18 05:44:44;;;;;;;0.77;0.47;;;19.00;87.00;;;;;;5057716;28;20024;-69
2022/05/18 05:47:11;;;;;;;4.38;0.90;;;18.80;87.80;;;;;;5066232;28;20028;-68
2022/05/18 05:49:39;;;;;;;4.30;0.82;;;18.60;88.50;;;;;;5062945;28;20241;-68
2022/05/18 05:52:11;;;;;;;2.15;0.40;;;18.50;87.90;;;;;;5059725;28;20107;-67
2022/05/18 05:54:38;;;;;;;6.15;0.90;;;18.50;88.50;;;;;;5040772;28;20017;-66
2022/05/18 05:57:06;;;;;;;4.20;0.90;;;18.40;89.50;;;;;;5039190;28;20116;-68
2022/05/18 05:59:35;;;;;;;1.73;0.73;;;18.40;88.00;;;;;;5062864;28;20441;-66
2022/05/18 06:02:09;;;;;;;6.35;0.90;;;18.60;86.30;;;;;;5063370;28;20483;-68
2022/05/18 06:04:37;;;;;;;1.63;0.60;;;18.70;86.90;;;;;;5064056;28;20025;-69
2022/05/18 06:07:04;;;;;;;3.88;0.68;;;18.80;87.00;;;;;;5040784;28;20258;-67
2022/05/18 06:09:32;;;;;;;4.35;0.70;;;18.70;86.10;;;;;;5064265;28;20724;-71
2022/05/18 06:11:59;;;;;;;5.70;0.55;;;18.70;85.60;;;;;;5059617;28;20060;-67
2022/05/18 06:14:26;;;;;;;1.30;0.63;;;18.60;86.40;;;;;;5058546;28;20091;-66
2022/05/18 06:16:53;;;;;;;2.00;0.30;;;18.50;87.50;;;;;;5064770;28;20016;-66
2022/05/18 06:19:20;;;;;;;4.72;0.93;;;18.60;86.30;;;;;;5060602;28;20435;-65
2022/05/18 06:21:47;;;;;;;4.65;0.95;;;18.70;86.90;;;;;;5060443;28;20107;-71
2022/05/18 06:24:15;;;;;;;2.35;0.60;;;18.80;85.90;;;;;;5063952;28;20089;-69
2022/05/18 06:26:44;;;;;;;3.63;0.60;;;18.80;86.10;;;;;;5064122;28;20028;-68
2022/05/18 06:29:12;;;;;;;2.92;0.80;;;18.80;85.90;;;;;;5063526;28;20099;-66
2022/05/18 06:31:39;;;;;;;3.45;0.77;;;18.50;84.80;;;;;;5064424;28;20122;-69
2022/05/18 06:34:06;;;;;;;4.78;0.70;;;18.30;86.20;;;;;;5064655;28;20061;-68
2022/05/18 06:36:34;;;;;;;3.05;0.60;;;18.10;85.20;;;;;;5062861;28;20545;-67
2022/05/18 06:39:02;;;;;;;1.17;0.57;;;18.10;85.90;;;;;;5062549;28;20047;-67
2022/05/18 06:41:29;;;;;;;2.17;1.00;;;18.50;85.50;;;;;;5066067;28;20455;-66
2022/05/18 06:44:00;;;;;;;3.55;0.60;;;18.80;85.10;;;;;;5062948;28;20108;-69
2022/05/18 06:46:28;;;;;;;3.83;0.73;;;18.70;84.30;;;;;;5062489;28;20105;-72
2022/05/18 06:48:56;;;;;;;3.38;0.90;;;18.40;84.30;;;;;;5064216;28;20025;-67
2022/05/18 06:51:26;;;;;;;2.40;0.98;;;18.10;86.10;;;;;;5064342;28;20085;-70
2022/05/18 06:53:54;;;;;;;4.60;0.98;;;17.80;87.90;;;;;;5063694;28;20060;-67
2022/05/18 06:56:22;;;;;;;2.80;1.30;;;17.70;85.50;;;;;;5063032;28;20391;-67
2022/05/18 06:58:50;;;;;;;2.03;0.82;;;17.50;87.30;;;;;;5066636;28;20028;-69
2022/05/18 07:01:18;;;;;;;3.75;0.90;;;17.40;86.80;;;;;;5064043;28;20025;-70
2022/05/18 07:03:45;;;;;;;3.38;0.90;;;17.30;88.80;;;;;;5063291;28;20024;-67
2022/05/18 07:06:14;;;;;;;1.13;0.90;;;17.20;88.30;;;;;;5063725;28;20263;-67
2022/05/18 07:08:41;;;;;;;5.35;0.73;;;17.10;89.30;;;;;;5065809;28;20099;-72
2022/05/18 07:11:08;;;;;;;2.58;0.85;;;17.10;90.60;;;;;;5063055;28;20044;-69
2022/05/18 07:13:37;;;;;;;2.33;0.75;;;16.90;90.10;;;;;;5063712;28;20066;-72
2022/05/18 07:16:06;;;;;;;2.20;0.70;;;16.70;90.90;;;;;;5061809;28;20545;-68
2022/05/18 07:18:35;;;;;;;5.70;1.05;;;16.50;91.40;;;;;;5062912;28;20035;-67
2022/05/18 07:21:05;;;;;;;4.13;0.60;;;16.30;91.30;;;;;;5061383;28;20033;-66
2022/05/18 07:23:32;;;;;;;5.60;0.85;;;16.30;91.50;;;;;;5062746;28;20017;-66
2022/05/18 07:26:00;;;;;;;5.47;0.90;;;16.20;91.20;;;;;;5063881;28;20086;-66
2022/05/18 07:28:27;;;;;;;2.65;0.85;;;16.30;92.50;;;;;;5062920;28;20013;-71
2022/05/18 07:30:55;;;;;;;2.65;0.60;;;16.50;90.50;;;;;;5064100;28;20090;-70
2022/05/18 07:33:24;;;;;;;4.80;0.70;;;16.40;90.80;;;;;;5061101;28;20105;-66
2022/05/18 07:35:53;;;;;;;1.00;0.50;;;16.50;88.70;;;;;;5062194;28;20063;-66
2022/05/18 07:38:22;;;;;;;6.57;0.80;;;16.50;90.60;;;;;;5062661;28;20103;-69
2022/05/18 07:40:50;;;;;;;6.68;0.80;;;16.60;89.20;;;;;;5060206;28;20037;-67
2022/05/18 07:43:18;;;;;;;1.80;1.10;;;16.40;90.20;;;;;;5059955;28;20157;-64
2022/05/18 07:45:46;;;;;;;1.50;0.80;;;16.30;90.40;;;;;;5060887;28;20034;-65
2022/05/18 07:48:13;;;;;;;6.82;0.68;;;16.30;90.20;;;;;;5063293;28;20021;-67
2022/05/18 07:50:41;;;;;;;1.02;0.50;;;16.20;89.50;;;;;;5052339;28;20040;-66
2022/05/18 07:53:08;;;;;;;2.97;0.70;;;16.30;89.50;;;;;;5060663;28;20039;-63
2022/05/18 07:55:35;;;;;;;3.28;0.55;;;16.20;90.00;;;;;;5057016;28;20332;-65
2022/05/18 07:58:07;;;;;;;1.25;0.75;;;16.10;90.10;;;;;;5063834;28;20043;-71
2022/05/18 08:00:34;;;;;;;1.13;0.60;;;16.00;90.40;;;;;;5062817;28;20328;-68
2022/05/18 08:03:02;;;;;;;2.47;0.70;;;15.90;90.50;;;;;;5056517;28;20020;-72
2022/05/18 08:05:30;;;;;;;4.05;0.85;;;15.90;90.60;;;;;;5058056;28;20056;-73
2022/05/18 08:07:58;;;;;;;1.42;0.93;;;15.80;91.20;;;;;;5057270;28;20021;-65
2022/05/18 08:15:56;;;;;;;0.93;0.57;;;15.50;91.80;;;;;;5053257;28;20453;-72
2022/05/18 08:18:23;;;;;;;2.30;0.57;;;15.50;92.10;;;;;;5040694;28;20025;-71
2022/05/18 08:20:50;;;;;;;1.92;0.60;;;15.50;92.20;;;;;;5056358;28;20440;-66
2022/05/18 08:23:17;;;;;;;2.92;0.80;;;15.50;92.20;;;;;;5058467;28;20031;-69
2022/05/18 08:25:46;;;;;;;1.42;0.65;;;15.40;92.50;;;;;;5063652;28;20021;-73
2022/05/18 08:28:14;;;;;;;2.17;1.15;;;15.30;92.90;;;;;;5057266;28;20022;-72
2022/05/18 08:30:43;;;;;;;2.38;0.93;;;15.30;92.80;;;;;;5064782;28;20024;-68
2022/05/18 08:33:11;;;;;;;3.80;1.13;;;15.40;93.40;;;;;;5056611;28;20016;-66
2022/05/18 08:35:39;;;;;;;1.30;0.73;;;15.40;92.80;;;;;;5063180;28;20415;-69
2022/05/18 08:38:07;;;;;;;1.40;0.80;;;15.50;93.40;;;;;;5061694;28;20044;-73
2022/05/18 08:40:46;;;;;;;2.45;1.10;;;15.40;93.70;;;;;;5061565;28;20033;-75
2022/05/18 08:43:32;;;;;;;2.63;1.00;;;15.30;93.90;;;;;;5061978;28;20021;-68
2022/05/18 08:46:39;;;;;;;6.53;0.90;;;15.70;93.20;;;;;;5054539;28;20116;-70
2022/05/18 08:49:27;;;;;;;1.88;0.95;;;15.90;92.50;;;;;;4958881;28;20047;-75
2022/05/18 08:52:17;;;;;;;3.67;1.15;;;15.90;92.80;;;;;;4961823;28;20128;-75
2022/05/18 08:55:22;;;;;;;1.38;1.13;;;15.90;92.80;;;;;;4964599;28;20070;-75
2022/05/18 08:57:50;;;;;;;2.75;1.02;;;15.80;92.40;;;;;;4927580;29;20051;-76
2022/05/18 09:00:28;;;;;;;2.55;1.17;;;15.80;92.30;;;;;;4922457;29;20084;-75
2022/05/18 09:03:16;;;;;;;1.65;1.30;;;15.80;92.70;;;;;;4924672;29;20035;-70
2022/05/18 09:05:49;;;;;;;4.47;1.20;;;15.70;92.70;;;;;;4924650;29;20032;-75
2022/05/18 09:08:40;;;;;;;4.13;1.42;;;15.70;92.70;;;;;;4929465;29;20487;-70
2022/05/18 09:11:21;;;;;;;1.92;1.40;;;15.60;93.10;;;;;;4922808;29;20035;-73
2022/05/18 09:13:48;;;;;;;1.60;1.10;;;15.50;93.10;;;;;;4923111;29;20073;-67
2022/05/18 09:16:38;;;;;;;1.55;1.02;;;15.40;93.20;;;;;;4917619;29;20048;-70
2022/05/18 09:19:23;;;;;;;3.55;1.25;;;15.30;93.40;;;;;;4921503;29;20051;-73
2022/05/18 09:22:28;;;;;;;3.30;1.50;;;15.20;93.60;;;;;;4921448;29;20776;-69
2022/05/18 09:25:17;;;;;;;1.85;1.23;;;15.20;93.80;;;;;;4921223;29;20047;-75
2022/05/18 09:28:12;;;;;;;3.80;1.60;;;15.20;93.90;;;;;;4979920;28;20077;-74
2022/05/18 09:30:41;;;;;;;3.78;1.20;;;15.10;94.20;;;;;;4978031;28;20035;-75
2022/05/18 09:33:27;;;;;;;2.58;0.95;;;15.00;95.20;;;;;;4969188;28;20057;-75
2022/05/18 09:36:00;;;;;;;2.55;1.17;;;14.80;95.50;;;;;;5056049;28;20446;-71
2022/05/18 09:38:45;;;;;;;4.68;0.85;;;14.60;95.80;;;;;;5048672;28;20098;-69
2022/05/18 09:41:17;;;;;;;1.45;0.88;;;14.50;97.10;;;;;;5048922;28;20266;-69
2022/05/18 09:44:18;;;;;;;1.30;0.73;;;14.40;96.70;;;;;;5051342;28;20032;-71
2022/05/18 09:46:46;;;;;;;1.48;0.90;;;14.20;97.70;;;;;;5059992;28;20025;-71
2022/05/18 09:49:13;;;;;;;2.67;0.68;;;13.90;98.20;;;;;;5048820;28;20546;-74
2022/05/18 09:51:41;;;;;;;4.03;0.70;;;13.90;98.60;;;;;;5059748;28;20087;-70
2022/05/18 09:54:09;;;;;;;2.15;0.80;;;13.60;99.00;;;;;;5057160;28;20036;-74
2022/05/18 09:57:01;;;;;;;1.58;0.68;;;13.60;99.50;;;;;;5055729;28;20029;-71
2022/05/18 09:59:35;;;;;;;1.52;0.73;;;13.70;99.20;;;;;;5050905;28;20033;-73
2022/05/18 10:07:50;;;;;;;0.60;0.60;;;14.00;98.40;;;;;;5058827;28;20106;-71
2022/05/18 10:10:23;;;;;;;2.10;0.70;;;14.00;98.50;;;;;;5052213;28;20114;-69
2022/05/18 10:13:00;;;;;;;1.80;1.02;;;14.00;98.30;;;;;;5066791;28;20028;-72
2022/05/18 10:15:38;;;;;;;1.65;0.50;;;14.00;99.10;;;;;;5054287;28;20036;-69
2022/05/18 10:18:23;;;;;;;0.82;0.60;;;13.80;98.80;;;;;;5057103;28;20031;-69
2022/05/18 10:21:11;;;;;;;3.65;0.73;;;13.60;99.90;;;;;;5041158;28;20086;-73
2022/05/18 10:24:08;;;;;;;1.30;0.75;;;13.50;99.20;;;;;;5036941;28;20087;-71
2022/05/18 10:26:41;;;;;;;1.80;0.85;;;13.40;99.90;;;;;;5061842;28;20511;-69
2022/05/18 10:29:14;;;;;;;1.58;1.00;;;13.40;99.90;;;;;;5058321;28;20019;-68
2022/05/18 10:31:46;;;;;;;2.22;0.77;;;13.20;99.90;;;;;;5063259;28;20028;-69
2022/05/18 10:34:23;;;;;;;1.60;0.90;;;13.10;99.90;;;;;;5063022;28;20263;-68
2022/05/18 10:36:54;;;;;;;3.47;0.90;;;13.00;99.90;;;;;;5064298;23;20028;-70
2022/05/18 10:39:36;;;;;;;1.75;0.85;;;13.00;99.90;;;;;;5047195;28;20043;-72
2022/05/18 10:42:20;;;;;;;2.58;1.55;;;13.10;99.90;;;;;;5052812;28;20045;-74
2022/05/18 10:44:47;;;;;;;3.67;0.82;;;13.10;99.80;;;;;;5050866;28;20621;-67
2022/05/18 10:47:22;;;;;;;3.80;0.82;;;13.20;99.00;;;;;;5054182;28;20017;-75
2022/05/18 10:49:49;;;;;;;1.75;0.60;;;13.10;99.40;;;;;;5048583;28;20372;-74
2022/05/18 10:52:33;;;;;;;1.05;0.40;;;13.10;99.10;;;;;;5043161;28;20487;-67
2022/05/18 10:55:10;;;;;;;3.20;0.75;;;13.10;99.40;;;;;;5053170;28;20063;-73
2022/05/18 10:57:40;;;;;;;1.35;0.52;;;13.10;99.20;;;;;;5055034;28;20032;-70
2022/05/18 11:00:11;;;;;;;1.80;0.90;;;13.00;98.90;;;;;;5048429;28;20041;-76
2022/05/18 11:02:59;;;;;;;0.77;0.52;;;13.00;99.00;;;;;;5050235;28;20545;-73
2022/05/18 11:05:54;;;;;;;2.33;1.05;;;13.10;99.00;;;;;;5058912;28;20435;-71
2022/05/18 11:08:25;;;;;;;1.25;0.80;;;13.20;98.80;;;;;;5051212;28;20021;-69
2022/05/18 11:11:06;;;;;;;4.35;1.42;;;13.10;99.00;;;;;;5051648;28;20230;-69
2022/05/18 11:13:52;;;;;;;3.40;1.42;;;13.10;98.80;;;;;;5050585;28;20427;-71
2022/05/18 11:16:22;;;;;;;0.60;0.40;;;13.20;98.40;;;;;;5054162;28;20028;-73
2022/05/18 11:19:25;;;;;;;2.35;0.60;;;13.30;98.40;;;;;;5057040;28;20033;-74
2022/05/18 11:22:34;;;;;;;0.52;0.30;;;13.40;98.10;;;;;;5053940;28;20021;-67
2022/05/18 11:25:25;;;;;;;2.28;0.60;;;13.40;98.30;;;;;;4976480;28;20038;-68
2022/05/18 11:28:14;;;;;;;0.85;0.50;;;13.30;98.50;;;;;;4978537;28;20022;-71
2022/05/18 11:30:58;;;;;;;1.83;0.60;;;13.10;98.90;;;;;;4980648;28;20531;-67
2022/05/18 11:33:43;;;;;;;0.85;0.47;;;12.90;99.50;;;;;;4985056;28;20492;-67
2022/05/18 11:36:12;;;;;;;1.25;0.60;;;12.60;99.90;;;;;;4984692;28;20034;-69
2022/05/18 11:38:53;;;;;;;3.80;0.60;;;12.50;99.90;;;;;;4985364;28;20540;-72
2022/05/18 11:41:50;;;;;;;1.80;0.70;;;12.40;99.90;;;;;;4983506;28;20484;-66
2022/05/18 11:44:27;;;;;;;1.83;0.60;;;12.20;99.90;;;;;;4986452;28;20109;-69
2022/05/18 11:47:21;;;;;;;1.38;0.70;;;12.10;99.90;;;;;;4986901;28;20039;-75
2022/05/18 11:49:54;;;;;;;1.00;0.65;;;12.00;99.90;;;;;;4985727;28;20120;-67
2022/05/18 11:52:46;;;;;;;4.88;0.95;;;11.90;99.90;;;;;;4985865;28;20198;-74
2022/05/18 11:55:29;;;;;;;1.57;0.90;;;11.70;99.90;;;;;;4930053;28;20030;-71
2022/05/18 11:58:26;;;;;;;2.58;1.05;;;11.70;99.90;;;;;;4983421;28;20585;-68
2022/05/18 12:01:11;;;;;;;1.50;0.57;;;11.60;99.90;;;;;;4983792;28;20125;-77
2022/05/18 12:03:42;;;;;;;1.83;0.60;;;11.60;99.90;;;;;;4985651;28;20133;-73
2022/05/18 12:06:14;;;;;;;7.80;1.35;;;11.80;99.90;;;;;;4983747;28;20486;-74
2022/05/18 12:08:52;;;;;;;13.52;1.55;;;11.90;99.90;;;;;;4982875;28;20531;-66
2022/05/18 12:11:55;;;;;;;4.03;1.40;;;12.10;99.90;;;;;;4983954;28;20037;-70
2022/05/18 12:14:27;;;;;;;9.98;1.42;;;12.10;99.90;;;;;;4988064;28;20460;-70
2022/05/18 12:16:57;;;;;;;11.80;1.85;;;12.10;99.90;;;;;;4980557;28;20034;-75
2022/05/18 12:19:45;;;;;;;8.35;1.90;;;12.00;99.90;;;;;;4982054;28;20104;-65
2022/05/18 12:22:16;;;;;;;12.40;1.60;;;11.90;99.90;;;;;;4982488;28;20026;-70
2022/05/18 12:24:46;;;;;;;4.35;0.70;;;11.70;99.90;;;;;;4982110;28;20359;-69
2022/05/18 12:27:16;;;;;;;2.83;0.93;;;11.70;99.90;;;;;;4981835;28;20073;-70
2022/05/18 12:29:44;;;;;;;3.38;1.10;;;11.80;99.90;;;;;;4984816;28;20061;-73
2022/05/18 12:32:12;;;;;;;7.43;1.55;;;11.90;99.90;;;;;;5010967;28;20091;-67
2022/05/18 12:34:42;;;;;;;5.53;1.67;;;11.90;99.90;;;;;;5044807;28;20032;-72
2022/05/18 12:37:47;;;;;;;9.50;2.13;;;11.80;99.90;;;;;;5050994;28;20092;-76
2022/05/18 12:40:30;;;;;;;3.90;1.30;;;11.90;99.90;;;;;;5045406;28;20388;-69
2022/05/18 12:43:17;;;;;;;8.48;1.52;;;11.90;99.90;;;;;;5059686;28;20392;-74
2022/05/18 12:45:48;;;;;;;2.85;0.85;;;12.00;99.90;;;;;;5048428;28;20024;-68
2022/05/18 12:48:34;;;;;;;1.10;0.60;;;12.10;99.90;;;;;;5049994;28;20036;-69
2022/05/18 12:51:08;;;;;;;3.55;0.70;;;12.10;99.90;;;;;;5056102;28;20456;-66
2022/05/18 12:54:10;;;;;;;7.80;0.98;;;12.30;99.90;;;;;;5054573;28;20645;-65
2022/05/18 12:56:37;;;;;;;2.38;0.80;;;12.30;99.60;;;;;;5058298;28;20431;-71
2022/05/18 12:59:08;;;;;;;2.35;0.90;;;12.40;99.00;;;;;;5052879;28;20033;-66
2022/05/18 13:01:48;;;;;;;3.05;0.80;;;12.50;99.00;;;;;;5048605;28;20024;-74
2022/05/18 13:04:15;;;;;;;3.63;0.70;;;12.50;99.10;;;;;;5048700;28;20331;-73
2022/05/18 13:06:55;;;;;;;3.08;0.65;;;12.50;98.70;;;;;;5048307;28;20024;-67
2022/05/18 13:09:25;;;;;;;3.35;1.00;;;12.50;99.00;;;;;;5055131;28;20036;-66
2022/05/18 13:12:14;;;;;;;3.05;1.15;;;12.40;98.90;;;;;;5052571;28;20099;-73
2022/05/18 13:15:02;;;;;;;2.33;0.80;;;12.40;98.90;;;;;;5053122;28;20402;-70
2022/05/18 13:18:11;;;;;;;7.00;1.10;;;12.30;99.20;;;;;;5052416;28;20506;-71
2022/05/18 13:20:51;;;;;;;4.38;0.95;;;12.30;99.20;;;;;;5052433;28;20386;-69
2022/05/18 13:23:31;;;;;;;2.72;0.73;;;12.10;99.60;;;;;;5048628;28;20017;-68
2022/05/18 13:26:22;;;;;;;2.42;0.68;;;12.00;99.80;;;;;;5052835;28;20103;-68
2022/05/18 13:28:51;;;;;;;0.85;0.60;;;11.90;99.90;;;;;;5048716;28;20056;-68
2022/05/18 13:31:19;;;;;;;0.50;0.50;;;11.80;99.90;;;;;;4700214;28;10000566;-69
2022/05/18 13:34:02;;;;;;;1.58;0.95;;;11.50;99.90;;;;;;5058371;28;20033;-68